Time;durP1;ratioP1;P1;durP2;ratioP2;P2;SDS_P1;SDS_P2;PMS_P1;PMS_P2;Temp;Humidity;BMP_temperature;BMP_pressure;BME280_temperature;BME280_humidity;BME280_pressure;Samples;Min_cycle;Max_cycle;Signal;HPM_P1;HPM_P2
2023/12/01 00:00:57;;;;;;;0.80;0.80;;;-1.00;99.90;;;;;;5018896;28;20159;-83
2023/12/01 00:03:22;;;;;;;0.70;0.70;;;-1.00;99.90;;;;;;5035958;28;20099;-83
2023/12/01 00:05:48;;;;;;;1.85;1.63;;;-1.00;99.90;;;;;;5037332;28;20091;-83
2023/12/01 00:08:14;;;;;;;0.70;0.70;;;-1.10;99.90;;;;;;5021760;28;20037;-85
2023/12/01 00:10:39;;;;;;;0.70;0.70;;;-0.40;99.90;;;;;;5041017;28;20049;-82
2023/12/01 00:13:05;;;;;;;0.65;0.65;;;-1.10;99.90;;;;;;5035491;28;20160;-83
2023/12/01 00:15:31;;;;;;;0.60;0.60;;;-1.10;99.90;;;;;;5041303;28;20045;-82
2023/12/01 00:17:56;;;;;;;0.75;0.75;;;-1.10;99.90;;;;;;5038829;28;20110;-82
2023/12/01 00:20:22;;;;;;;0.73;0.73;;;-1.10;99.90;;;;;;5047823;28;20047;-82
2023/12/01 00:22:48;;;;;;;0.70;0.70;;;-1.00;99.90;;;;;;5015329;28;20045;-82
2023/12/01 00:25:13;;;;;;;0.80;0.80;;;-0.80;99.90;;;;;;5044128;28;20092;-82
2023/12/01 00:27:39;;;;;;;0.70;0.70;;;-1.10;99.90;;;;;;5044092;28;20514;-81
2023/12/01 00:30:06;;;;;;;0.65;0.65;;;-1.10;99.90;;;;;;5042627;28;20069;-82
2023/12/01 00:32:32;;;;;;;2.10;2.00;;;-1.10;99.90;;;;;;5041532;28;20125;-82
2023/12/01 00:34:58;;;;;;;0.60;0.60;;;-1.10;99.90;;;;;;5040263;28;20072;-82
2023/12/01 00:37:25;;;;;;;0.70;0.70;;;-1.10;99.90;;;;;;5034792;28;20043;-82
2023/12/01 00:39:50;;;;;;;0.73;0.73;;;-1.10;99.90;;;;;;5039988;28;20055;-81
2023/12/01 00:42:17;;;;;;;0.60;0.60;;;-0.30;99.90;;;;;;5032403;28;20046;-81
2023/12/01 00:44:45;;;;;;;0.70;0.70;;;-1.10;99.90;;;;;;5039681;28;20041;-81
2023/12/01 00:47:10;;;;;;;0.73;0.73;;;-1.20;99.90;;;;;;5049003;28;20081;-81
2023/12/01 00:49:36;;;;;;;2.42;1.58;;;-1.20;99.90;;;;;;5037934;28;20072;-82
2023/12/01 00:52:04;;;;;;;;;;;-1.30;99.90;;;;;;5046266;28;20041;-81
2023/12/01 00:54:29;;;;;;;;;;;-1.30;99.90;;;;;;5051129;28;19971;-80
2023/12/01 00:56:55;;;;;;;0.68;0.68;;;-1.30;99.90;;;;;;5043713;28;19963;-80
2023/12/01 00:59:21;;;;;;;;;;;-0.20;99.90;;;;;;5029119;28;20045;-80
2023/12/01 01:01:47;;;;;;;0.60;0.60;;;-1.40;99.90;;;;;;5044891;28;19925;-81
2023/12/01 01:04:13;;;;;;;0.70;0.70;;;-1.40;99.90;;;;;;5045402;28;20474;-81
2023/12/01 01:06:39;;;;;;;1.08;1.08;;;-1.40;99.90;;;;;;5025757;28;20057;-81
2023/12/01 01:09:04;;;;;;;0.70;0.70;;;-1.40;99.90;;;;;;5028579;28;20045;-80
2023/12/01 01:11:30;;;;;;;0.68;0.68;;;-1.40;99.90;;;;;;5041468;28;20078;-81
2023/12/01 01:13:56;;;;;;;1.05;1.05;;;-1.40;99.90;;;;;;5044177;28;20051;-81
2023/12/01 01:16:22;;;;;;;;;;;-1.40;99.90;;;;;;5041538;28;20056;-81
2023/12/01 01:18:48;;;;;;;0.70;0.70;;;-1.50;99.90;;;;;;5051094;28;20059;-81
2023/12/01 01:21:14;;;;;;;0.90;0.90;;;-1.30;99.90;;;;;;5044827;28;20127;-80
2023/12/01 01:23:40;;;;;;;;;;;-1.50;99.90;;;;;;5043702;28;20036;-81
2023/12/01 01:26:07;;;;;;;0.80;0.80;;;-1.50;99.90;;;;;;5011352;28;19924;-80
2023/12/01 01:28:32;;;;;;;0.80;0.80;;;-1.50;99.90;;;;;;5039679;28;20045;-80
2023/12/01 01:30:58;;;;;;;0.75;0.75;;;-1.20;99.90;;;;;;5027577;28;20375;-80
2023/12/01 01:33:24;;;;;;;1.13;1.13;;;-1.60;99.90;;;;;;5032119;28;20045;-81
2023/12/01 01:35:50;;;;;;;0.80;0.80;;;-1.60;99.90;;;;;;5044303;28;21339;-81
2023/12/01 01:38:15;;;;;;;0.70;0.70;;;-1.60;99.90;;;;;;5047649;28;20045;-82
2023/12/01 01:40:42;;;;;;;0.80;0.80;;;-1.70;99.90;;;;;;5046373;28;20050;-80
2023/12/01 01:43:07;;;;;;;;;;;-1.70;99.90;;;;;;5043631;28;20099;-80
2023/12/01 01:45:33;;;;;;;0.60;0.60;;;-1.80;99.90;;;;;;5024695;28;19916;-80
2023/12/01 01:47:59;;;;;;;0.80;0.80;;;-1.80;99.90;;;;;;5029721;28;20045;-82
2023/12/01 01:50:26;;;;;;;0.80;0.80;;;-1.10;99.90;;;;;;5015336;28;20049;-81
2023/12/01 01:52:54;;;;;;;1.45;1.15;;;-1.70;99.90;;;;;;5041558;28;20045;-82
2023/12/01 01:55:20;;;;;;;0.70;0.70;;;-1.50;99.90;;;;;;5043216;28;20390;-81
2023/12/01 01:57:48;;;;;;;0.68;0.68;;;-0.50;99.90;;;;;;5040971;28;20517;-81
2023/12/01 02:00:17;;;;;;;1.98;1.20;;;-1.80;99.90;;;;;;5031877;28;20083;-82
2023/12/01 02:02:44;;;;;;;0.60;0.60;;;-1.90;99.90;;;;;;5026530;28;20415;-82
2023/12/01 02:05:13;;;;;;;1.98;0.85;;;-1.80;99.90;;;;;;5041765;28;20091;-82
2023/12/01 02:07:39;;;;;;;0.70;0.70;;;-1.80;99.90;;;;;;5040487;28;20108;-81
2023/12/01 02:10:06;;;;;;;1.88;1.77;;;-1.10;99.90;;;;;;5047417;28;20443;-82
2023/12/01 02:12:32;;;;;;;0.80;0.80;;;-1.90;99.90;;;;;;5042967;28;20101;-81
2023/12/01 02:14:58;;;;;;;0.80;0.80;;;-1.80;99.90;;;;;;5026477;28;20454;-81
2023/12/01 02:17:23;;;;;;;1.23;1.23;;;-1.90;99.90;;;;;;5045872;28;20045;-79
2023/12/01 02:19:51;;;;;;;0.82;0.82;;;-1.50;99.90;;;;;;5044747;28;20372;-81
2023/12/01 02:22:17;;;;;;;2.03;1.95;;;-1.80;99.90;;;;;;5001100;28;20040;-82
2023/12/01 02:24:43;;;;;;;0.70;0.70;;;-1.80;99.90;;;;;;5049314;28;20059;-82
2023/12/01 02:27:09;;;;;;;0.70;0.70;;;-1.90;99.90;;;;;;5039850;28;20041;-82
2023/12/01 02:29:34;;;;;;;0.70;0.70;;;-1.90;99.90;;;;;;5028310;28;20045;-82
2023/12/01 02:32:00;;;;;;;0.85;0.85;;;-1.90;99.90;;;;;;5049072;28;20376;-82
2023/12/01 02:34:26;;;;;;;0.80;0.80;;;-2.00;99.90;;;;;;5048008;28;20071;-82
2023/12/01 02:36:53;;;;;;;0.90;0.90;;;-1.90;99.90;;;;;;5048497;28;20091;-82
2023/12/01 02:39:19;;;;;;;0.70;0.70;;;-2.00;99.90;;;;;;5036792;28;20093;-82
2023/12/01 02:41:45;;;;;;;;;;;-2.00;99.90;;;;;;5025401;28;20114;-82
2023/12/01 02:44:10;;;;;;;0.80;0.80;;;-1.80;99.90;;;;;;5040880;28;19925;-82
2023/12/01 02:46:36;;;;;;;;;;;-2.00;99.90;;;;;;5042156;28;20041;-82
2023/12/01 02:49:02;;;;;;;0.70;0.70;;;-1.30;99.90;;;;;;5043140;28;20007;-81
2023/12/01 02:51:27;;;;;;;0.82;0.82;;;-2.10;99.90;;;;;;5027419;28;20116;-82
2023/12/01 02:53:53;;;;;;;0.80;0.80;;;-2.20;99.90;;;;;;5000795;28;20037;-81
2023/12/01 02:56:19;;;;;;;0.80;0.80;;;-2.30;99.90;;;;;;5040037;28;20089;-81
2023/12/01 02:58:44;;;;;;;0.80;0.80;;;-2.40;99.90;;;;;;5042573;28;20411;-81
2023/12/01 03:01:11;;;;;;;0.82;0.82;;;-2.40;99.90;;;;;;5032177;28;20037;-82
2023/12/01 03:03:37;;;;;;;1.13;1.13;;;-2.50;99.90;;;;;;5041548;28;20452;-82
2023/12/01 03:06:03;;;;;;;0.90;0.90;;;-2.60;99.90;;;;;;5030070;28;20041;-80
2023/12/01 03:08:29;;;;;;;0.70;0.70;;;-2.70;99.90;;;;;;5050240;28;20045;-80
2023/12/01 03:10:55;;;;;;;0.80;0.80;;;-2.80;99.90;;;;;;5038772;28;20052;-81
2023/12/01 03:13:21;;;;;;;;;;;-2.90;99.90;;;;;;5033031;28;20044;-81
2023/12/01 03:15:46;;;;;;;0.70;0.70;;;-3.00;99.90;;;;;;5045180;28;19920;-80
2023/12/01 03:18:12;;;;;;;0.85;0.85;;;-3.10;99.90;;;;;;5030879;28;20663;-80
2023/12/01 03:20:39;;;;;;;0.80;0.80;;;-3.20;99.90;;;;;;5033546;28;20159;-80
2023/12/01 03:23:04;;;;;;;1.00;1.00;;;-3.30;99.90;;;;;;5047353;28;20131;-80
2023/12/01 03:25:30;;;;;;;0.90;0.90;;;-3.40;99.90;;;;;;5028264;28;20045;-80
2023/12/01 03:27:56;;;;;;;;;;;-3.50;99.90;;;;;;5011513;28;20041;-80
2023/12/01 03:30:21;;;;;;;0.90;0.90;;;-3.60;99.90;;;;;;5042911;28;19921;-81
2023/12/01 03:32:48;;;;;;;;;;;-3.60;99.90;;;;;;5030124;28;20569;-81
2023/12/01 03:35:20;;;;;;;0.80;0.80;;;-3.60;99.90;;;;;;5020758;28;19924;-81
2023/12/01 03:37:47;;;;;;;0.90;0.90;;;-3.70;99.90;;;;;;5038051;28;20529;-80
2023/12/01 03:40:13;;;;;;;0.70;0.70;;;-3.70;99.90;;;;;;5042921;28;20049;-82
2023/12/01 03:42:42;;;;;;;;;;;-3.80;99.90;;;;;;5040385;28;20045;-82
2023/12/01 03:45:12;;;;;;;0.80;0.80;;;-3.80;99.90;;;;;;5037148;28;19920;-81
2023/12/01 03:47:39;;;;;;;0.90;0.90;;;-3.90;99.90;;;;;;5004619;28;20043;-81
2023/12/01 03:50:05;;;;;;;0.90;0.90;;;-3.90;99.90;;;;;;5021849;28;20041;-82
2023/12/01 03:52:31;;;;;;;0.90;0.90;;;-4.00;99.90;;;;;;5023144;28;20087;-83
2023/12/01 03:54:58;;;;;;;;;;;-4.10;99.90;;;;;;5041060;28;20053;-82
2023/12/01 03:57:27;;;;;;;0.88;0.88;;;-4.10;99.90;;;;;;5037248;28;20302;-82
2023/12/01 03:59:54;;;;;;;0.90;0.90;;;-4.10;99.90;;;;;;5044491;28;20049;-81
2023/12/01 04:02:21;;;;;;;0.90;0.90;;;-4.20;99.90;;;;;;5039240;28;20049;-80
2023/12/01 04:04:49;;;;;;;0.90;0.90;;;-4.20;99.90;;;;;;5043799;28;20076;-81
2023/12/01 04:07:14;;;;;;;0.90;0.90;;;-4.20;99.90;;;;;;5041082;28;20041;-81
2023/12/01 04:09:41;;;;;;;;;;;-4.30;99.90;;;;;;5030842;28;20043;-80
2023/12/01 04:12:08;;;;;;;1.00;1.00;;;-4.30;99.90;;;;;;5047150;28;19971;-81
2023/12/01 04:14:34;;;;;;;0.88;0.88;;;-4.30;99.90;;;;;;5049069;28;20107;-81
2023/12/01 04:17:13;;;;;;;0.90;0.90;;;-4.40;99.90;;;;;;5023396;28;20060;-81
2023/12/01 04:19:39;;;;;;;0.90;0.90;;;-4.40;99.90;;;;;;5035240;28;20071;-80
2023/12/01 04:22:07;;;;;;;;;;;-4.40;99.90;;;;;;5052113;28;20519;-81
2023/12/01 04:24:34;;;;;;;0.93;0.93;;;-4.40;99.90;;;;;;5040859;28;19928;-80
2023/12/01 04:27:01;;;;;;;0.90;0.90;;;-4.50;99.90;;;;;;5042079;28;20049;-81
2023/12/01 04:29:30;;;;;;;1.27;1.27;;;-4.60;99.90;;;;;;5036365;28;20039;-81
2023/12/01 04:31:59;;;;;;;0.90;0.90;;;-4.60;99.90;;;;;;5039204;28;20091;-80
2023/12/01 04:34:26;;;;;;;1.25;1.20;;;-4.70;99.90;;;;;;5038681;28;20049;-81
2023/12/01 04:36:53;;;;;;;0.82;0.82;;;-4.70;99.90;;;;;;5003119;28;20143;-81
2023/12/01 04:39:20;;;;;;;1.00;1.00;;;-4.70;99.90;;;;;;5043074;28;20091;-80
2023/12/01 04:41:50;;;;;;;0.90;0.90;;;-4.80;99.90;;;;;;5045190;28;20110;-80
2023/12/01 04:44:17;;;;;;;0.98;0.98;;;-4.80;99.90;;;;;;5037524;28;20506;-80
2023/12/01 04:46:43;;;;;;;0.90;0.90;;;-4.80;99.90;;;;;;5042119;28;20046;-81
2023/12/01 04:49:08;;;;;;;;;;;-4.80;99.90;;;;;;5041838;28;20394;-81
2023/12/01 04:51:37;;;;;;;1.00;1.00;;;-4.90;99.90;;;;;;5048134;28;19974;-81
2023/12/01 04:54:06;;;;;;;;;;;-4.90;99.90;;;;;;5042126;28;20049;-81
2023/12/01 04:56:33;;;;;;;0.90;0.90;;;-4.90;99.90;;;;;;5041056;28;19959;-80
2023/12/01 04:59:00;;;;;;;1.00;1.00;;;-4.90;99.90;;;;;;5040416;28;20044;-80
2023/12/01 05:01:26;;;;;;;0.80;0.80;;;-4.90;99.90;;;;;;5043678;28;20032;-80
2023/12/01 05:03:51;;;;;;;;;;;-5.00;99.90;;;;;;5049108;28;20041;-80
2023/12/01 05:06:17;;;;;;;0.90;0.90;;;-5.00;99.90;;;;;;5045426;28;19928;-80
2023/12/01 05:08:42;;;;;;;;;;;-5.00;99.90;;;;;;5033972;28;20479;-80
2023/12/01 05:11:10;;;;;;;0.90;0.90;;;-5.10;99.90;;;;;;5047560;28;19920;-81
2023/12/01 05:13:35;;;;;;;1.08;1.08;;;-5.10;99.90;;;;;;5044383;28;20049;-80
2023/12/01 05:16:01;;;;;;;;;;;-5.10;99.90;;;;;;5024047;28;20044;-79
2023/12/01 05:18:27;;;;;;;1.00;1.00;;;-5.10;99.90;;;;;;5037402;28;20437;-80
2023/12/01 05:20:53;;;;;;;;;;;-5.10;99.90;;;;;;5029783;28;20486;-81
2023/12/01 05:23:19;;;;;;;0.90;0.90;;;-5.10;99.90;;;;;;5040669;28;20291;-81
2023/12/01 05:25:46;;;;;;;;;;;-5.20;99.90;;;;;;5043982;28;20136;-81
2023/12/01 05:28:12;;;;;;;1.10;1.08;;;-5.20;99.90;;;;;;5042237;28;19925;-80
2023/12/01 05:30:41;;;;;;;;;;;-5.30;99.90;;;;;;5045374;28;20044;-79
2023/12/01 05:33:08;;;;;;;1.00;1.00;;;-4.10;99.90;;;;;;5042168;28;19916;-79
2023/12/01 05:35:35;;;;;;;1.00;1.00;;;-5.30;99.90;;;;;;5025252;28;20101;-80
2023/12/01 05:38:04;;;;;;;0.95;0.95;;;-5.30;99.90;;;;;;5045822;28;20041;-80
2023/12/01 05:40:35;;;;;;;0.90;0.90;;;-5.30;99.90;;;;;;5041461;28;20096;-79
2023/12/01 05:43:01;;;;;;;1.00;1.00;;;-5.40;99.90;;;;;;5044945;28;20083;-80
2023/12/01 05:45:29;;;;;;;1.00;1.00;;;-5.40;99.90;;;;;;5034148;28;20043;-79
2023/12/01 05:47:55;;;;;;;1.00;1.00;;;-5.40;99.90;;;;;;5044323;28;20036;-80
2023/12/01 05:50:23;;;;;;;0.90;0.90;;;-5.30;99.90;;;;;;5049692;28;20037;-80
2023/12/01 05:52:51;;;;;;;1.00;1.00;;;-5.20;99.90;;;;;;5046638;28;20041;-79
2023/12/01 05:55:20;;;;;;;1.00;1.00;;;-5.20;99.90;;;;;;5043358;28;20051;-79
2023/12/01 05:57:49;;;;;;;1.08;1.08;;;-5.30;99.90;;;;;;5039764;28;20033;-80
2023/12/01 06:00:24;;;;;;;1.00;1.00;;;-5.30;99.90;;;;;;5045493;28;20833;-80
2023/12/01 06:02:51;;;;;;;1.00;1.00;;;-5.30;99.90;;;;;;5042545;28;20053;-80
2023/12/01 06:05:19;;;;;;;0.90;0.90;;;-5.30;99.90;;;;;;5040593;28;20037;-80
2023/12/01 06:07:50;;;;;;;1.00;1.00;;;-5.40;99.90;;;;;;5040101;28;20049;-80
2023/12/01 06:10:19;;;;;;;1.05;1.05;;;-5.40;99.90;;;;;;5045704;28;20509;-80
2023/12/01 06:12:45;;;;;;;0.90;0.90;;;-5.30;99.90;;;;;;5039227;28;20056;-80
2023/12/01 06:15:13;;;;;;;0.80;0.80;;;-5.30;99.90;;;;;;5041667;28;20568;-80
2023/12/01 06:17:44;;;;;;;0.90;0.90;;;-5.30;99.90;;;;;;5046380;28;20040;-80
2023/12/01 06:20:17;;;;;;;0.90;0.90;;;-5.30;99.90;;;;;;5025586;28;20140;-80
2023/12/01 06:22:51;;;;;;;1.00;1.00;;;-5.30;99.90;;;;;;5043739;28;20045;-80
2023/12/01 06:25:19;;;;;;;1.02;1.02;;;-5.20;99.90;;;;;;5038576;28;20060;-79
2023/12/01 06:27:46;;;;;;;1.00;1.00;;;-5.10;99.90;;;;;;5025105;28;20135;-80
2023/12/01 06:30:14;;;;;;;1.00;1.00;;;-5.10;99.90;;;;;;5023211;28;20044;-79
2023/12/01 06:32:46;;;;;;;0.98;0.98;;;-5.10;99.90;;;;;;5039396;28;20049;-79
2023/12/01 06:35:14;;;;;;;1.00;1.00;;;-5.00;99.90;;;;;;5027578;28;20563;-81
2023/12/01 06:37:40;;;;;;;0.90;0.90;;;-5.00;99.90;;;;;;5039919;28;20053;-82
2023/12/01 06:40:17;;;;;;;1.00;1.00;;;-5.00;99.90;;;;;;5043886;28;20489;-82
2023/12/01 06:42:44;;;;;;;0.80;0.80;;;-5.10;99.90;;;;;;5023317;28;20403;-82
2023/12/01 06:45:11;;;;;;;0.90;0.90;;;-3.40;99.90;;;;;;5042142;28;20045;-82
2023/12/01 06:47:40;;;;;;;1.00;1.00;;;-5.00;99.90;;;;;;5035601;28;20131;-82
2023/12/01 06:50:09;;;;;;;1.00;1.00;;;-5.00;99.90;;;;;;5039106;28;20364;-80
2023/12/01 06:52:38;;;;;;;1.00;1.00;;;-5.00;99.90;;;;;;5038365;28;20094;-82
2023/12/01 06:55:07;;;;;;;0.98;0.98;;;-5.00;99.90;;;;;;5042838;28;20041;-82
2023/12/01 06:57:44;;;;;;;1.00;1.00;;;-5.10;99.90;;;;;;5025996;28;20134;-83
2023/12/01 07:00:29;;;;;;;0.98;0.98;;;-4.70;99.90;;;;;;5036052;28;20041;-81
2023/12/01 07:03:04;;;;;;;0.90;0.90;;;-5.10;99.90;;;;;;5029234;28;20040;-81
2023/12/01 07:05:32;;;;;;;0.90;0.90;;;-5.10;99.90;;;;;;5042137;28;20429;-80
2023/12/01 07:07:59;;;;;;;0.98;0.98;;;-5.10;99.90;;;;;;5041745;28;20041;-81
2023/12/01 07:10:28;;;;;;;0.95;0.95;;;-5.20;99.90;;;;;;5043595;28;20041;-81
2023/12/01 07:12:54;;;;;;;0.90;0.90;;;-5.10;99.90;;;;;;5039748;28;20336;-83
2023/12/01 07:15:21;;;;;;;;;;;-5.20;99.90;;;;;;5009594;28;20049;-80
2023/12/01 07:17:51;;;;;;;1.00;1.00;;;-5.20;99.90;;;;;;5043468;28;20226;-77
2023/12/01 07:20:18;;;;;;;1.00;1.00;;;-5.10;99.90;;;;;;5040892;28;20037;-83
2023/12/01 07:22:46;;;;;;;0.90;0.90;;;-5.00;99.90;;;;;;5039198;28;20249;-82
2023/12/01 07:25:23;;;;;;;1.10;1.10;;;-5.10;99.90;;;;;;5035176;28;20054;-81
2023/12/01 07:27:54;;;;;;;0.98;0.98;;;-5.10;99.90;;;;;;5027823;28;20041;-80
2023/12/01 07:30:20;;;;;;;1.08;1.08;;;-5.10;99.90;;;;;;5021351;28;20052;-79
2023/12/01 07:32:47;;;;;;;0.85;0.85;;;-5.00;99.90;;;;;;5033646;28;20515;-81
2023/12/01 07:35:14;;;;;;;1.00;1.00;;;-5.00;99.90;;;;;;5029475;28;20049;-81
2023/12/01 07:37:44;;;;;;;0.90;0.90;;;-4.70;99.90;;;;;;5038242;28;20406;-79
2023/12/01 07:40:11;;;;;;;1.00;1.00;;;-4.10;99.90;;;;;;5026484;28;20048;-81
2023/12/01 07:42:37;;;;;;;1.00;1.00;;;-4.90;99.90;;;;;;5039606;28;20042;-80
2023/12/01 07:45:04;;;;;;;0.90;0.90;;;-4.80;99.90;;;;;;5039245;28;20051;-80
2023/12/01 07:47:30;;;;;;;1.40;1.33;;;-4.80;99.90;;;;;;5042498;28;20487;-81
2023/12/01 07:49:55;;;;;;;;;;;-4.70;99.90;;;;;;5036514;28;20140;-80
2023/12/01 07:52:21;;;;;;;0.90;0.90;;;-4.70;99.90;;;;;;5034463;28;19921;-80
2023/12/01 07:54:46;;;;;;;;;;;-4.80;99.90;;;;;;5039269;28;20045;-80
2023/12/01 07:57:13;;;;;;;1.00;1.00;;;-4.50;99.90;;;;;;5037082;28;19917;-80
2023/12/01 07:59:39;;;;;;;0.80;0.80;;;-4.80;99.90;;;;;;5043322;28;20071;-82
2023/12/01 08:02:05;;;;;;;;;;;-4.80;99.90;;;;;;5019875;28;20491;-76
2023/12/01 08:04:31;;;;;;;1.17;1.15;;;-4.90;99.90;;;;;;5033666;28;19978;-78
2023/12/01 08:06:56;;;;;;;;;;;-4.90;99.90;;;;;;5007448;28;20041;-78
2023/12/01 08:09:25;;;;;;;1.00;1.00;;;-4.90;99.90;;;;;;5041343;28;19916;-77
2023/12/01 08:11:53;;;;;;;1.00;1.00;;;-4.60;99.90;;;;;;5028545;28;20153;-79
2023/12/01 08:14:18;;;;;;;1.00;1.00;;;-4.80;99.90;;;;;;5033315;28;20116;-77
2023/12/01 08:16:44;;;;;;;;;;;-4.80;99.90;;;;;;5017736;28;20538;-77
2023/12/01 08:19:09;;;;;;;0.93;0.93;;;-4.70;99.90;;;;;;5033604;28;19972;-75
2023/12/01 08:21:36;;;;;;;;;;;-4.80;99.90;;;;;;5023279;28;20103;-76
2023/12/01 08:24:04;;;;;;;1.00;1.00;;;-4.50;99.90;;;;;;5039069;28;19925;-78
2023/12/01 08:26:33;;;;;;;0.82;0.82;;;-4.70;99.90;;;;;;5017995;28;20091;-79
2023/12/01 08:28:59;;;;;;;1.00;1.00;;;-4.70;99.90;;;;;;5032916;28;20049;-76
2023/12/01 08:31:25;;;;;;;;;;;-4.70;99.90;;;;;;5025086;28;20037;-77
2023/12/01 08:33:52;;;;;;;0.90;0.90;;;-4.70;99.90;;;;;;5034278;28;19921;-76
2023/12/01 08:36:18;;;;;;;0.90;0.90;;;-4.60;99.90;;;;;;5035436;28;20118;-78
2023/12/01 08:38:44;;;;;;;0.90;0.90;;;-4.60;99.90;;;;;;5022043;28;20552;-76
2023/12/01 08:41:10;;;;;;;;;;;-4.50;99.90;;;;;;5039156;28;20139;-75
2023/12/01 08:43:35;;;;;;;1.00;1.00;;;-4.50;99.90;;;;;;5019249;28;19928;-77
2023/12/01 08:46:02;;;;;;;;;;;-4.00;99.90;;;;;;5013498;28;20075;-76
2023/12/01 08:48:28;;;;;;;1.00;1.00;;;-4.50;99.90;;;;;;5040110;28;19921;-76
2023/12/01 08:50:54;;;;;;;0.77;0.77;;;-4.50;99.90;;;;;;5041024;28;20045;-77
2023/12/01 08:53:22;;;;;;;0.80;0.80;;;-4.40;99.90;;;;;;5036011;28;20041;-77
2023/12/01 08:55:55;;;;;;;0.90;0.90;;;-4.40;99.90;;;;;;5025813;28;20053;-75
2023/12/01 08:58:22;;;;;;;0.90;0.90;;;-4.30;99.90;;;;;;5040373;28;20410;-78
2023/12/01 09:00:53;;;;;;;0.90;0.90;;;-4.20;99.90;;;;;;5043040;28;20555;-76
2023/12/01 09:03:19;;;;;;;;;;;-4.20;99.90;;;;;;5035875;28;20036;-78
2023/12/01 09:05:45;;;;;;;13.52;2.85;;;-4.10;99.90;;;;;;5046909;28;19917;-77
2023/12/01 09:08:12;;;;;;;0.90;0.90;;;-3.90;99.90;;;;;;5041439;28;20042;-77
2023/12/01 09:10:38;;;;;;;0.75;0.75;;;-3.90;99.90;;;;;;5023662;28;20041;-76
2023/12/01 09:13:04;;;;;;;0.73;0.73;;;-3.80;99.90;;;;;;5039401;28;20042;-79
2023/12/01 09:15:29;;;;;;;;;;;-3.80;99.90;;;;;;5041935;28;20513;-78
2023/12/01 09:17:55;;;;;;;0.80;0.80;;;-3.80;99.90;;;;;;5039304;28;19917;-79
2023/12/01 09:20:21;;;;;;;;;;;-3.70;99.90;;;;;;5041606;28;20052;-78
2023/12/01 09:22:47;;;;;;;0.80;0.80;;;-3.70;99.90;;;;;;5027454;28;19944;-78
2023/12/01 09:25:13;;;;;;;;;;;-3.60;99.90;;;;;;5041426;28;20095;-80
2023/12/01 09:27:43;;;;;;;0.80;0.80;;;-3.50;99.90;;;;;;5032230;28;19928;-79
2023/12/01 09:30:16;;;;;;;1.33;1.33;;;-2.50;99.90;;;;;;5044719;28;20266;-80
2023/12/01 09:32:43;;;;;;;0.90;0.90;;;-3.50;99.90;;;;;;5014688;28;20048;-79
2023/12/01 09:35:10;;;;;;;0.90;0.90;;;-2.90;99.90;;;;;;5025868;28;20048;-79
2023/12/01 09:37:36;;;;;;;0.80;0.80;;;-3.30;99.90;;;;;;5025143;28;20045;-79
2023/12/01 09:40:09;;;;;;;0.93;0.93;;;-3.20;99.90;;;;;;5032083;28;20207;-80
2023/12/01 09:42:37;;;;;;;0.77;0.77;;;-3.20;99.90;;;;;;5020341;28;20087;-79
2023/12/01 09:45:06;;;;;;;0.88;0.88;;;-3.10;99.90;;;;;;5037726;28;20037;-79
2023/12/01 09:47:34;;;;;;;1.25;1.17;;;-3.00;99.90;;;;;;5050351;28;20386;-79
2023/12/01 09:50:00;;;;;;;0.80;0.80;;;-2.90;99.90;;;;;;5053410;28;20522;-78
2023/12/01 09:52:32;;;;;;;0.90;0.90;;;-2.90;99.90;;;;;;5030878;28;20114;-78
2023/12/01 09:54:57;;;;;;;;;;;-2.90;99.90;;;;;;5039752;28;20053;-79
2023/12/01 09:57:26;;;;;;;0.80;0.80;;;-2.80;99.90;;;;;;5039903;28;19924;-80
2023/12/01 09:59:53;;;;;;;;;;;-2.70;99.90;;;;;;5024279;28;20135;-80
2023/12/01 10:02:19;;;;;;;0.80;0.80;;;-1.30;99.90;;;;;;5029660;28;19924;-78
2023/12/01 10:04:45;;;;;;;0.80;0.80;;;-2.70;99.90;;;;;;5024292;28;20052;-79
2023/12/01 10:07:12;;;;;;;0.80;0.80;;;-2.70;99.90;;;;;;5041127;28;20096;-79
2023/12/01 10:09:39;;;;;;;0.90;0.90;;;-2.60;99.90;;;;;;5021854;28;20058;-77
2023/12/01 10:12:09;;;;;;;0.90;0.90;;;-2.60;99.90;;;;;;5021666;28;20055;-78
2023/12/01 10:14:36;;;;;;;0.90;0.90;;;-2.60;99.90;;;;;;5022213;28;20143;-78
2023/12/01 10:17:07;;;;;;;0.85;0.85;;;-2.60;99.90;;;;;;5036425;28;20045;-78
2023/12/01 10:19:34;;;;;;;0.80;0.80;;;-2.60;99.90;;;;;;5033767;28;20490;-78
2023/12/01 10:22:00;;;;;;;0.88;0.88;;;-2.50;99.90;;;;;;5031901;28;20490;-78
2023/12/01 10:24:26;;;;;;;;;;;-2.50;99.90;;;;;;5042311;28;20052;-78
2023/12/01 10:26:55;;;;;;;0.75;0.75;;;-2.50;99.90;;;;;;5038121;28;19929;-79
2023/12/01 10:29:28;;;;;;;0.80;0.80;;;-2.40;99.90;;;;;;5034640;28;20407;-79
2023/12/01 10:31:56;;;;;;;0.80;0.80;;;-2.40;99.90;;;;;;5021240;28;20398;-80
2023/12/01 10:34:22;;;;;;;0.82;0.82;;;-2.40;99.90;;;;;;5016882;28;20052;-79
2023/12/01 10:36:48;;;;;;;0.80;0.80;;;-2.30;99.90;;;;;;5033392;28;20041;-78
2023/12/01 10:39:16;;;;;;;0.70;0.70;;;-2.30;99.90;;;;;;5029963;28;20045;-78
2023/12/01 10:41:44;;;;;;;0.75;0.75;;;-2.30;99.90;;;;;;5022804;28;20068;-79
2023/12/01 10:44:15;;;;;;;0.90;0.90;;;-2.20;99.90;;;;;;5039154;28;20433;-79
2023/12/01 10:46:46;;;;;;;0.65;0.65;;;-2.20;99.90;;;;;;5038253;28;20045;-79
2023/12/01 10:49:17;;;;;;;0.80;0.80;;;-2.10;99.90;;;;;;5036370;28;20072;-79
2023/12/01 10:51:52;;;;;;;0.70;0.70;;;-1.50;99.90;;;;;;5036035;28;20045;-78
2023/12/01 10:54:21;;;;;;;0.70;0.70;;;-2.10;99.90;;;;;;5032856;28;20128;-78
2023/12/01 10:57:18;;;;;;;0.70;0.70;;;-2.00;99.90;;;;;;5022097;28;20034;-78
2023/12/01 10:59:48;;;;;;;0.90;0.90;;;-2.00;99.90;;;;;;5037315;28;20049;-78
2023/12/01 11:02:15;;;;;;;0.70;0.70;;;-2.00;99.90;;;;;;5030940;28;20053;-79
2023/12/01 11:04:46;;;;;;;0.80;0.80;;;-1.90;99.90;;;;;;5031074;28;20120;-78
2023/12/01 11:07:44;;;;;;;0.80;0.80;;;-1.90;99.90;;;;;;5020890;28;20038;-78
2023/12/01 11:10:35;;;;;;;0.80;0.80;;;-1.80;99.90;;;;;;5025846;28;20044;-80
2023/12/01 11:13:24;;;;;;;0.70;0.70;;;-1.80;99.90;;;;;;5038098;28;20479;-79
2023/12/01 11:15:53;;;;;;;0.80;0.80;;;-1.80;99.90;;;;;;5028324;28;20053;-80
2023/12/01 11:18:20;;;;;;;1.00;1.00;;;-1.80;99.90;;;;;;5046660;28;20047;-77
2023/12/01 11:20:48;;;;;;;0.65;0.65;;;-1.80;99.90;;;;;;5034722;28;20514;-79
2023/12/01 11:23:19;;;;;;;0.85;0.85;;;-1.60;99.90;;;;;;5033425;28;20098;-79
2023/12/01 11:25:49;;;;;;;1.38;1.38;;;-1.70;99.90;;;;;;5036597;28;20151;-78
2023/12/01 11:28:57;;;;;;;0.80;0.80;;;-1.70;99.90;;;;;;5038318;28;20055;-80
2023/12/01 11:33:57;;;;;;;0.80;0.80;;;-1.20;99.90;;;;;;5038168;28;20049;-80
2023/12/01 11:36:28;;;;;;;0.80;0.80;;;-1.70;99.90;;;;;;5017842;28;20499;-79
2023/12/01 11:41:53;;;;;;;0.80;0.80;;;-1.00;99.90;;;;;;5040100;28;20143;-79
2023/12/01 11:44:24;;;;;;;0.70;0.70;;;-1.30;99.90;;;;;;5016536;28;20436;-79
2023/12/01 11:46:57;;;;;;;0.90;0.90;;;-1.10;99.90;;;;;;5033260;28;20475;-78
2023/12/01 11:49:45;;;;;;;0.73;0.73;;;-1.00;99.90;;;;;;5030243;28;20194;-80
2023/12/01 11:52:13;;;;;;;0.70;0.70;;;-0.90;99.90;;;;;;5037159;28;20379;-79
2023/12/01 11:54:39;;;;;;;0.80;0.80;;;-0.90;99.90;;;;;;5022495;28;20047;-79
2023/12/01 11:57:07;;;;;;;1.02;1.02;;;-0.90;99.90;;;;;;5035608;28;20045;-79
2023/12/01 11:59:33;;;;;;;0.80;0.80;;;-0.80;99.90;;;;;;5034532;28;20047;-80
2023/12/01 12:01:59;;;;;;;0.73;0.73;;;-0.70;99.90;;;;;;5032797;28;20037;-80
2023/12/01 12:04:32;;;;;;;6.00;2.55;;;-0.70;99.90;;;;;;5034160;28;20484;-80
2023/12/01 12:07:00;;;;;;;0.70;0.70;;;-0.70;99.90;;;;;;5017766;28;20048;-79
2023/12/01 12:09:28;;;;;;;0.80;0.80;;;-0.80;99.90;;;;;;5016198;28;20040;-80
2023/12/01 12:11:55;;;;;;;0.70;0.70;;;-0.90;99.90;;;;;;5023484;28;20512;-78
2023/12/01 12:14:24;;;;;;;0.70;0.70;;;-0.90;99.90;;;;;;5016607;28;20119;-78
2023/12/01 12:16:51;;;;;;;0.80;0.80;;;-1.00;99.90;;;;;;5041260;28;20383;-79
2023/12/01 12:19:22;;;;;;;0.75;0.75;;;-1.00;99.90;;;;;;5041554;28;20037;-79
2023/12/01 12:21:49;;;;;;;0.60;0.60;;;-1.00;99.90;;;;;;5045078;28;20045;-79
2023/12/01 12:24:16;;;;;;;0.80;0.80;;;-1.00;99.90;;;;;;5051192;28;20040;-80
2023/12/01 12:26:58;;;;;;;0.77;0.77;;;-1.00;99.90;;;;;;5038490;28;20053;-78
2023/12/01 12:29:25;;;;;;;0.77;0.77;;;-1.00;99.90;;;;;;5049928;28;20128;-81
2023/12/01 12:31:51;;;;;;;0.70;0.70;;;-0.90;99.90;;;;;;5051790;28;20114;-77
2023/12/01 12:34:18;;;;;;;0.80;0.80;;;-1.00;99.90;;;;;;5049701;28;20149;-82
2023/12/01 12:36:46;;;;;;;0.60;0.60;;;-0.90;99.90;;;;;;5037713;28;20482;-81
2023/12/01 12:39:16;;;;;;;0.65;0.65;;;-0.90;99.90;;;;;;5028385;28;20474;-82
2023/12/01 12:41:59;;;;;;;3.60;1.53;;;-0.90;99.90;;;;;;5029544;28;20136;-80
2023/12/01 12:44:26;;;;;;;0.70;0.70;;;-0.90;99.90;;;;;;5052777;28;20110;-78
2023/12/01 12:47:03;;;;;;;0.70;0.70;;;-0.90;99.90;;;;;;5034389;28;20403;-79
2023/12/01 12:49:33;;;;;;;0.82;0.82;;;-0.80;99.90;;;;;;5054032;28;20044;-80
2023/12/01 12:52:00;;;;;;;0.80;0.80;;;-0.80;99.90;;;;;;5019044;28;20041;-80
2023/12/01 12:54:26;;;;;;;0.80;0.80;;;-0.70;99.90;;;;;;5050080;28;20072;-80
2023/12/01 12:56:51;;;;;;;;;;;-0.20;99.90;;;;;;5059715;28;20498;-78
2023/12/01 12:59:17;;;;;;;0.98;0.98;;;0.00;99.90;;;;;;5048708;28;19931;-79
2023/12/01 13:01:43;;;;;;;0.70;0.70;;;-0.50;99.90;;;;;;5032463;28;20083;-80
2023/12/01 13:04:09;;;;;;;0.70;0.70;;;-0.80;99.90;;;;;;5032637;28;20064;-80
2023/12/01 13:06:35;;;;;;;0.70;0.70;;;-0.80;99.90;;;;;;5052088;28;20068;-79